sensor_id;sensor_type;location;lat;lon;timestamp;P1;durP1;ratioP1;P2;durP2;ratioP2
41643;SDS011;44236;48.098;11.582;2023-11-21T00:00:20;3.42;;;1.10;;
41643;SDS011;44236;48.098;11.582;2023-11-21T00:02:46;2.95;;;0.82;;
41643;SDS011;44236;48.098;11.582;2023-11-21T00:05:13;2.55;;;1.30;;
41643;SDS011;44236;48.098;11.582;2023-11-21T00:07:39;1.40;;;0.80;;
41643;SDS011;44236;48.098;11.582;2023-11-21T00:10:06;5.10;;;1.10;;
41643;SDS011;44236;48.098;11.582;2023-11-21T00:12:33;2.80;;;1.10;;
41643;SDS011;44236;48.098;11.582;2023-11-21T00:14:59;3.95;;;1.50;;
41643;SDS011;44236;48.098;11.582;2023-11-21T00:17:26;2.70;;;1.00;;
41643;SDS011;44236;48.098;11.582;2023-11-21T00:19:52;4.18;;;1.23;;
41643;SDS011;44236;48.098;11.582;2023-11-21T00:22:18;2.83;;;1.02;;
41643;SDS011;44236;48.098;11.582;2023-11-21T00:24:43;1.58;;;0.85;;
41643;SDS011;44236;48.098;11.582;2023-11-21T00:27:09;3.20;;;1.20;;
41643;SDS011;44236;48.098;11.582;2023-11-21T00:29:38;2.97;;;1.20;;
41643;SDS011;44236;48.098;11.582;2023-11-21T00:32:04;3.45;;;2.08;;
41643;SDS011;44236;48.098;11.582;2023-11-21T00:34:34;2.25;;;1.02;;
41643;SDS011;44236;48.098;11.582;2023-11-21T00:36:59;2.20;;;1.23;;
41643;SDS011;44236;48.098;11.582;2023-11-21T00:39:25;2.72;;;1.30;;
41643;SDS011;44236;48.098;11.582;2023-11-21T00:41:54;3.10;;;1.20;;
41643;SDS011;44236;48.098;11.582;2023-11-21T00:44:19;2.72;;;1.00;;
41643;SDS011;44236;48.098;11.582;2023-11-21T00:46:45;4.90;;;1.35;;
41643;SDS011;44236;48.098;11.582;2023-11-21T00:49:10;3.38;;;1.30;;
41643;SDS011;44236;48.098;11.582;2023-11-21T00:51:36;3.25;;;0.95;;
41643;SDS011;44236;48.098;11.582;2023-11-21T00:54:02;4.55;;;1.10;;
41643;SDS011;44236;48.098;11.582;2023-11-21T00:56:27;4.38;;;1.50;;
41643;SDS011;44236;48.098;11.582;2023-11-21T00:58:53;2.08;;;1.02;;
41643;SDS011;44236;48.098;11.582;2023-11-21T01:01:19;3.50;;;1.30;;
41643;SDS011;44236;48.098;11.582;2023-11-21T01:03:47;2.22;;;1.00;;
41643;SDS011;44236;48.098;11.582;2023-11-21T01:06:13;3.70;;;1.00;;
41643;SDS011;44236;48.098;11.582;2023-11-21T01:08:40;3.35;;;1.10;;
41643;SDS011;44236;48.098;11.582;2023-11-21T01:11:05;4.68;;;1.20;;
41643;SDS011;44236;48.098;11.582;2023-11-21T01:13:33;5.38;;;1.20;;
41643;SDS011;44236;48.098;11.582;2023-11-21T01:16:00;3.22;;;1.20;;
41643;SDS011;44236;48.098;11.582;2023-11-21T01:18:26;4.97;;;1.55;;
41643;SDS011;44236;48.098;11.582;2023-11-21T01:20:51;2.75;;;1.20;;
41643;SDS011;44236;48.098;11.582;2023-11-21T01:23:20;2.55;;;0.85;;
41643;SDS011;44236;48.098;11.582;2023-11-21T01:25:46;1.73;;;0.90;;
41643;SDS011;44236;48.098;11.582;2023-11-21T01:28:11;3.75;;;1.00;;
41643;SDS011;44236;48.098;11.582;2023-11-21T01:30:37;2.50;;;0.77;;
41643;SDS011;44236;48.098;11.582;2023-11-21T01:33:02;4.25;;;1.83;;
41643;SDS011;44236;48.098;11.582;2023-11-21T01:35:28;3.53;;;1.52;;
41643;SDS011;44236;48.098;11.582;2023-11-21T01:37:54;2.75;;;0.93;;
41643;SDS011;44236;48.098;11.582;2023-11-21T01:40:20;3.33;;;1.25;;
41643;SDS011;44236;48.098;11.582;2023-11-21T01:42:46;2.50;;;0.93;;
41643;SDS011;44236;48.098;11.582;2023-11-21T01:45:12;2.55;;;1.30;;
41643;SDS011;44236;48.098;11.582;2023-11-21T01:47:38;2.35;;;0.98;;
41643;SDS011;44236;48.098;11.582;2023-11-21T01:50:06;4.40;;;1.80;;
41643;SDS011;44236;48.098;11.582;2023-11-21T01:52:33;0.70;;;0.60;;
41643;SDS011;44236;48.098;11.582;2023-11-21T01:55:00;2.88;;;1.20;;
41643;SDS011;44236;48.098;11.582;2023-11-21T01:57:26;1.55;;;1.00;;
41643;SDS011;44236;48.098;11.582;2023-11-21T01:59:52;2.22;;;0.70;;
41643;SDS011;44236;48.098;11.582;2023-11-21T02:02:19;4.38;;;0.95;;
41643;SDS011;44236;48.098;11.582;2023-11-21T02:04:45;3.95;;;1.38;;
41643;SDS011;44236;48.098;11.582;2023-11-21T02:07:10;3.30;;;0.80;;
41643;SDS011;44236;48.098;11.582;2023-11-21T02:09:36;2.75;;;1.08;;
41643;SDS011;44236;48.098;11.582;2023-11-21T02:12:09;1.92;;;0.90;;
41643;SDS011;44236;48.098;11.582;2023-11-21T02:14:37;2.10;;;0.88;;
41643;SDS011;44236;48.098;11.582;2023-11-21T02:17:03;2.60;;;1.08;;
41643;SDS011;44236;48.098;11.582;2023-11-21T02:19:29;3.15;;;0.98;;
41643;SDS011;44236;48.098;11.582;2023-11-21T02:21:56;6.57;;;1.20;;
41643;SDS011;44236;48.098;11.582;2023-11-21T02:24:25;2.60;;;1.00;;
41643;SDS011;44236;48.098;11.582;2023-11-21T02:26:52;1.63;;;0.80;;
41643;SDS011;44236;48.098;11.582;2023-11-21T02:29:18;2.35;;;0.85;;
41643;SDS011;44236;48.098;11.582;2023-11-21T02:31:47;3.08;;;1.00;;
41643;SDS011;44236;48.098;11.582;2023-11-21T02:34:14;4.07;;;1.30;;
41643;SDS011;44236;48.098;11.582;2023-11-21T02:36:40;3.15;;;0.80;;
41643;SDS011;44236;48.098;11.582;2023-11-21T02:39:07;2.90;;;1.25;;
41643;SDS011;44236;48.098;11.582;2023-11-21T02:41:33;2.55;;;1.17;;
41643;SDS011;44236;48.098;11.582;2023-11-21T02:43:59;1.52;;;0.82;;
41643;SDS011;44236;48.098;11.582;2023-11-21T02:46:25;4.60;;;1.23;;
41643;SDS011;44236;48.098;11.582;2023-11-21T02:48:51;1.98;;;1.00;;
41643;SDS011;44236;48.098;11.582;2023-11-21T02:51:19;2.03;;;1.15;;
41643;SDS011;44236;48.098;11.582;2023-11-21T02:53:44;1.27;;;0.70;;
41643;SDS011;44236;48.098;11.582;2023-11-21T02:56:11;2.28;;;1.15;;
41643;SDS011;44236;48.098;11.582;2023-11-21T02:58:37;1.98;;;0.77;;
41643;SDS011;44236;48.098;11.582;2023-11-21T03:01:06;2.40;;;1.00;;
41643;SDS011;44236;48.098;11.582;2023-11-21T03:03:33;2.53;;;0.70;;
41643;SDS011;44236;48.098;11.582;2023-11-21T03:05:58;1.85;;;1.00;;
41643;SDS011;44236;48.098;11.582;2023-11-21T03:08:24;1.75;;;0.70;;
41643;SDS011;44236;48.098;11.582;2023-11-21T03:10:50;2.05;;;0.80;;
41643;SDS011;44236;48.098;11.582;2023-11-21T03:13:15;4.05;;;1.45;;
41643;SDS011;44236;48.098;11.582;2023-11-21T03:15:41;2.03;;;0.80;;
41643;SDS011;44236;48.098;11.582;2023-11-21T03:18:07;3.35;;;0.80;;
41643;SDS011;44236;48.098;11.582;2023-11-21T03:20:33;1.73;;;1.10;;
41643;SDS011;44236;48.098;11.582;2023-11-21T03:22:59;2.47;;;1.30;;
41643;SDS011;44236;48.098;11.582;2023-11-21T03:25:25;4.32;;;1.23;;
41643;SDS011;44236;48.098;11.582;2023-11-21T03:27:53;2.03;;;0.70;;
41643;SDS011;44236;48.098;11.582;2023-11-21T03:30:18;4.07;;;1.00;;
41643;SDS011;44236;48.098;11.582;2023-11-21T03:32:44;1.40;;;0.70;;
41643;SDS011;44236;48.098;11.582;2023-11-21T03:35:10;1.75;;;0.80;;
41643;SDS011;44236;48.098;11.582;2023-11-21T03:37:35;1.95;;;0.77;;
41643;SDS011;44236;48.098;11.582;2023-11-21T03:40:03;2.22;;;0.80;;
41643;SDS011;44236;48.098;11.582;2023-11-21T03:42:29;1.83;;;0.80;;
41643;SDS011;44236;48.098;11.582;2023-11-21T03:44:54;1.05;;;0.60;;
41643;SDS011;44236;48.098;11.582;2023-11-21T03:47:20;1.35;;;0.80;;
41643;SDS011;44236;48.098;11.582;2023-11-21T03:49:46;2.20;;;0.63;;
41643;SDS011;44236;48.098;11.582;2023-11-21T03:52:12;3.60;;;0.88;;
41643;SDS011;44236;48.098;11.582;2023-11-21T03:54:37;1.08;;;0.63;;
41643;SDS011;44236;48.098;11.582;2023-11-21T03:57:03;2.25;;;0.80;;
41643;SDS011;44236;48.098;11.582;2023-11-21T03:59:29;2.35;;;0.80;;
41643;SDS011;44236;48.098;11.582;2023-11-21T04:01:55;3.30;;;1.00;;
41643;SDS011;44236;48.098;11.582;2023-11-21T04:04:22;1.55;;;0.70;;
41643;SDS011;44236;48.098;11.582;2023-11-21T04:06:48;3.53;;;0.90;;
41643;SDS011;44236;48.098;11.582;2023-11-21T04:09:15;2.15;;;0.80;;
41643;SDS011;44236;48.098;11.582;2023-11-21T04:11:40;1.88;;;0.88;;
41643;SDS011;44236;48.098;11.582;2023-11-21T04:14:07;2.42;;;1.10;;
41643;SDS011;44236;48.098;11.582;2023-11-21T04:16:34;2.08;;;0.63;;
41643;SDS011;44236;48.098;11.582;2023-11-21T04:18:59;3.75;;;0.90;;
41643;SDS011;44236;48.098;11.582;2023-11-21T04:21:25;0.65;;;0.60;;
41643;SDS011;44236;48.098;11.582;2023-11-21T04:23:51;2.75;;;1.15;;
41643;SDS011;44236;48.098;11.582;2023-11-21T04:26:17;2.70;;;1.33;;
41643;SDS011;44236;48.098;11.582;2023-11-21T04:28:44;2.17;;;0.73;;
41643;SDS011;44236;48.098;11.582;2023-11-21T04:31:10;1.38;;;0.77;;
41643;SDS011;44236;48.098;11.582;2023-11-21T04:33:35;2.08;;;0.90;;
41643;SDS011;44236;48.098;11.582;2023-11-21T04:36:02;1.92;;;0.73;;
41643;SDS011;44236;48.098;11.582;2023-11-21T04:38:28;0.73;;;0.63;;
41643;SDS011;44236;48.098;11.582;2023-11-21T04:40:54;1.55;;;0.68;;
41643;SDS011;44236;48.098;11.582;2023-11-21T04:43:19;2.75;;;0.70;;
41643;SDS011;44236;48.098;11.582;2023-11-21T04:45:45;2.03;;;0.93;;
41643;SDS011;44236;48.098;11.582;2023-11-21T04:48:10;1.95;;;0.95;;
41643;SDS011;44236;48.098;11.582;2023-11-21T04:50:36;2.17;;;0.88;;
41643;SDS011;44236;48.098;11.582;2023-11-21T04:53:02;2.60;;;0.70;;
41643;SDS011;44236;48.098;11.582;2023-11-21T04:55:28;2.60;;;1.05;;
41643;SDS011;44236;48.098;11.582;2023-11-21T04:57:54;3.53;;;0.88;;
41643;SDS011;44236;48.098;11.582;2023-11-21T05:00:19;2.25;;;0.70;;
41643;SDS011;44236;48.098;11.582;2023-11-21T05:02:46;1.38;;;0.70;;
41643;SDS011;44236;48.098;11.582;2023-11-21T05:05:12;1.90;;;0.70;;
41643;SDS011;44236;48.098;11.582;2023-11-21T05:07:38;1.35;;;0.80;;
41643;SDS011;44236;48.098;11.582;2023-11-21T05:10:05;1.88;;;1.10;;
41643;SDS011;44236;48.098;11.582;2023-11-21T05:15:05;1.70;;;0.70;;
41643;SDS011;44236;48.098;11.582;2023-11-21T05:17:37;1.80;;;0.88;;
41643;SDS011;44236;48.098;11.582;2023-11-21T05:20:10;2.13;;;0.70;;
41643;SDS011;44236;48.098;11.582;2023-11-21T05:22:38;1.17;;;0.70;;
41643;SDS011;44236;48.098;11.582;2023-11-21T05:25:03;1.42;;;0.70;;
41643;SDS011;44236;48.098;11.582;2023-11-21T05:27:30;2.78;;;1.10;;
41643;SDS011;44236;48.098;11.582;2023-11-21T05:29:56;1.17;;;0.52;;
41643;SDS011;44236;48.098;11.582;2023-11-21T05:32:22;2.30;;;0.60;;
41643;SDS011;44236;48.098;11.582;2023-11-21T05:34:51;1.77;;;0.73;;
41643;SDS011;44236;48.098;11.582;2023-11-21T05:37:17;1.30;;;0.60;;
41643;SDS011;44236;48.098;11.582;2023-11-21T05:39:43;3.65;;;0.70;;
41643;SDS011;44236;48.098;11.582;2023-11-21T05:42:08;1.13;;;0.63;;
41643;SDS011;44236;48.098;11.582;2023-11-21T05:44:35;1.05;;;0.55;;
41643;SDS011;44236;48.098;11.582;2023-11-21T05:47:02;0.90;;;0.40;;
41643;SDS011;44236;48.098;11.582;2023-11-21T05:49:28;2.03;;;0.63;;
41643;SDS011;44236;48.098;11.582;2023-11-21T05:51:54;3.05;;;0.55;;
41643;SDS011;44236;48.098;11.582;2023-11-21T05:54:20;1.95;;;0.80;;
41643;SDS011;44236;48.098;11.582;2023-11-21T05:56:47;2.05;;;0.68;;
41643;SDS011;44236;48.098;11.582;2023-11-21T05:59:12;1.58;;;0.85;;
41643;SDS011;44236;48.098;11.582;2023-11-21T06:01:38;3.20;;;0.88;;
41643;SDS011;44236;48.098;11.582;2023-11-21T06:04:04;2.53;;;0.90;;
41643;SDS011;44236;48.098;11.582;2023-11-21T06:06:30;1.27;;;0.68;;
41643;SDS011;44236;48.098;11.582;2023-11-21T06:08:56;1.92;;;0.70;;
41643;SDS011;44236;48.098;11.582;2023-11-21T06:11:22;1.30;;;0.60;;
41643;SDS011;44236;48.098;11.582;2023-11-21T06:13:49;1.73;;;0.73;;
41643;SDS011;44236;48.098;11.582;2023-11-21T06:16:15;1.77;;;0.65;;
41643;SDS011;44236;48.098;11.582;2023-11-21T06:18:44;1.85;;;0.98;;
41643;SDS011;44236;48.098;11.582;2023-11-21T06:21:11;3.13;;;0.85;;
41643;SDS011;44236;48.098;11.582;2023-11-21T06:23:37;1.63;;;0.70;;
41643;SDS011;44236;48.098;11.582;2023-11-21T06:26:02;2.22;;;0.80;;
41643;SDS011;44236;48.098;11.582;2023-11-21T06:28:29;3.03;;;1.10;;
41643;SDS011;44236;48.098;11.582;2023-11-21T06:30:55;8.30;;;1.95;;
41643;SDS011;44236;48.098;11.582;2023-11-21T06:33:22;9.50;;;2.40;;
41643;SDS011;44236;48.098;11.582;2023-11-21T06:35:48;10.70;;;2.38;;
41643;SDS011;44236;48.098;11.582;2023-11-21T06:38:14;4.40;;;1.63;;
41643;SDS011;44236;48.098;11.582;2023-11-21T06:40:40;8.60;;;1.90;;
41643;SDS011;44236;48.098;11.582;2023-11-21T06:43:06;5.82;;;1.27;;
41643;SDS011;44236;48.098;11.582;2023-11-21T06:45:32;11.25;;;2.20;;
41643;SDS011;44236;48.098;11.582;2023-11-21T06:47:59;8.68;;;2.50;;
41643;SDS011;44236;48.098;11.582;2023-11-21T06:50:25;10.18;;;3.33;;
41643;SDS011;44236;48.098;11.582;2023-11-21T06:52:54;5.80;;;1.63;;
41643;SDS011;44236;48.098;11.582;2023-11-21T06:55:19;3.70;;;1.35;;
41643;SDS011;44236;48.098;11.582;2023-11-21T06:57:45;7.45;;;2.38;;
41643;SDS011;44236;48.098;11.582;2023-11-21T07:00:12;3.55;;;2.10;;
41643;SDS011;44236;48.098;11.582;2023-11-21T07:02:40;3.55;;;1.60;;
41643;SDS011;44236;48.098;11.582;2023-11-21T07:05:06;11.98;;;2.80;;
41643;SDS011;44236;48.098;11.582;2023-11-21T07:07:32;9.25;;;3.28;;
41643;SDS011;44236;48.098;11.582;2023-11-21T07:10:00;9.57;;;2.70;;
41643;SDS011;44236;48.098;11.582;2023-11-21T07:12:28;8.00;;;2.40;;
41643;SDS011;44236;48.098;11.582;2023-11-21T07:14:57;7.78;;;1.98;;
41643;SDS011;44236;48.098;11.582;2023-11-21T07:17:23;7.38;;;2.17;;
41643;SDS011;44236;48.098;11.582;2023-11-21T07:19:49;9.93;;;2.28;;
41643;SDS011;44236;48.098;11.582;2023-11-21T07:22:15;8.75;;;2.13;;
41643;SDS011;44236;48.098;11.582;2023-11-21T07:24:47;6.88;;;1.75;;
41643;SDS011;44236;48.098;11.582;2023-11-21T07:27:15;5.97;;;1.63;;
41643;SDS011;44236;48.098;11.582;2023-11-21T07:29:41;8.52;;;2.72;;
41643;SDS011;44236;48.098;11.582;2023-11-21T07:32:07;8.88;;;2.22;;
41643;SDS011;44236;48.098;11.582;2023-11-21T07:34:34;13.70;;;2.80;;
41643;SDS011;44236;48.098;11.582;2023-11-21T07:37:01;12.38;;;2.88;;
41643;SDS011;44236;48.098;11.582;2023-11-21T07:39:26;8.18;;;1.70;;
41643;SDS011;44236;48.098;11.582;2023-11-21T07:41:52;22.48;;;3.35;;
41643;SDS011;44236;48.098;11.582;2023-11-21T07:44:18;13.57;;;2.67;;
41643;SDS011;44236;48.098;11.582;2023-11-21T07:46:44;8.80;;;2.40;;
41643;SDS011;44236;48.098;11.582;2023-11-21T07:49:10;17.90;;;2.58;;
41643;SDS011;44236;48.098;11.582;2023-11-21T07:51:36;12.40;;;2.13;;
41643;SDS011;44236;48.098;11.582;2023-11-21T07:54:02;9.73;;;2.55;;
41643;SDS011;44236;48.098;11.582;2023-11-21T07:56:27;9.90;;;2.33;;
41643;SDS011;44236;48.098;11.582;2023-11-21T07:58:53;4.85;;;1.98;;
41643;SDS011;44236;48.098;11.582;2023-11-21T08:01:19;5.53;;;1.25;;
41643;SDS011;44236;48.098;11.582;2023-11-21T08:03:44;5.88;;;1.45;;
41643;SDS011;44236;48.098;11.582;2023-11-21T08:06:10;9.32;;;1.88;;
41643;SDS011;44236;48.098;11.582;2023-11-21T08:08:37;9.75;;;2.45;;
41643;SDS011;44236;48.098;11.582;2023-11-21T08:11:02;9.90;;;3.05;;
41643;SDS011;44236;48.098;11.582;2023-11-21T08:13:28;6.60;;;1.88;;
41643;SDS011;44236;48.098;11.582;2023-11-21T08:15:57;9.52;;;2.22;;
41643;SDS011;44236;48.098;11.582;2023-11-21T08:18:27;8.23;;;3.10;;
41643;SDS011;44236;48.098;11.582;2023-11-21T08:20:54;8.25;;;2.55;;
41643;SDS011;44236;48.098;11.582;2023-11-21T08:23:20;9.88;;;2.25;;
41643;SDS011;44236;48.098;11.582;2023-11-21T08:25:50;8.93;;;2.33;;
41643;SDS011;44236;48.098;11.582;2023-11-21T08:28:16;11.32;;;2.40;;
41643;SDS011;44236;48.098;11.582;2023-11-21T08:30:42;14.10;;;3.60;;
41643;SDS011;44236;48.098;11.582;2023-11-21T08:33:07;10.32;;;3.20;;
41643;SDS011;44236;48.098;11.582;2023-11-21T08:35:33;12.95;;;2.60;;
41643;SDS011;44236;48.098;11.582;2023-11-21T08:37:59;15.00;;;3.83;;
41643;SDS011;44236;48.098;11.582;2023-11-21T08:40:25;14.85;;;3.33;;
41643;SDS011;44236;48.098;11.582;2023-11-21T08:42:51;8.07;;;2.22;;
41643;SDS011;44236;48.098;11.582;2023-11-21T08:45:17;6.63;;;2.00;;
41643;SDS011;44236;48.098;11.582;2023-11-21T08:47:44;7.10;;;1.92;;
41643;SDS011;44236;48.098;11.582;2023-11-21T08:50:10;6.50;;;2.35;;
41643;SDS011;44236;48.098;11.582;2023-11-21T08:52:37;9.00;;;3.35;;
41643;SDS011;44236;48.098;11.582;2023-11-21T08:55:04;10.85;;;2.95;;
41643;SDS011;44236;48.098;11.582;2023-11-21T08:57:35;11.82;;;2.30;;
41643;SDS011;44236;48.098;11.582;2023-11-21T09:00:05;11.52;;;3.10;;
41643;SDS011;44236;48.098;11.582;2023-11-21T09:02:37;6.20;;;2.47;;
41643;SDS011;44236;48.098;11.582;2023-11-21T09:05:07;10.63;;;2.75;;
41643;SDS011;44236;48.098;11.582;2023-11-21T09:07:34;10.55;;;3.35;;
41643;SDS011;44236;48.098;11.582;2023-11-21T09:10:00;6.55;;;2.10;;
41643;SDS011;44236;48.098;11.582;2023-11-21T09:12:26;9.77;;;2.17;;
41643;SDS011;44236;48.098;11.582;2023-11-21T09:14:52;11.25;;;2.55;;
41643;SDS011;44236;48.098;11.582;2023-11-21T09:17:17;10.80;;;2.05;;
41643;SDS011;44236;48.098;11.582;2023-11-21T09:19:43;7.60;;;2.47;;
41643;SDS011;44236;48.098;11.582;2023-11-21T09:22:12;7.53;;;1.95;;
41643;SDS011;44236;48.098;11.582;2023-11-21T09:24:37;9.93;;;2.03;;
41643;SDS011;44236;48.098;11.582;2023-11-21T09:27:03;9.43;;;2.00;;
41643;SDS011;44236;48.098;11.582;2023-11-21T09:29:30;6.13;;;1.75;;
41643;SDS011;44236;48.098;11.582;2023-11-21T09:31:56;10.68;;;1.90;;
41643;SDS011;44236;48.098;11.582;2023-11-21T09:34:24;6.70;;;1.70;;
41643;SDS011;44236;48.098;11.582;2023-11-21T09:36:50;11.25;;;1.45;;
41643;SDS011;44236;48.098;11.582;2023-11-21T09:39:17;8.73;;;2.42;;
41643;SDS011;44236;48.098;11.582;2023-11-21T09:41:52;6.78;;;2.20;;
41643;SDS011;44236;48.098;11.582;2023-11-21T09:44:31;7.50;;;2.00;;
41643;SDS011;44236;48.098;11.582;2023-11-21T09:47:00;7.20;;;2.38;;
41643;SDS011;44236;48.098;11.582;2023-11-21T09:49:27;5.55;;;1.65;;
41643;SDS011;44236;48.098;11.582;2023-11-21T09:51:54;6.13;;;2.05;;
41643;SDS011;44236;48.098;11.582;2023-11-21T09:54:23;5.55;;;2.13;;
41643;SDS011;44236;48.098;11.582;2023-11-21T09:56:50;16.92;;;1.75;;
41643;SDS011;44236;48.098;11.582;2023-11-21T09:59:15;4.32;;;1.20;;
41643;SDS011;44236;48.098;11.582;2023-11-21T10:01:41;5.82;;;2.05;;
41643;SDS011;44236;48.098;11.582;2023-11-21T10:04:08;5.78;;;1.90;;
41643;SDS011;44236;48.098;11.582;2023-11-21T10:06:40;5.28;;;1.52;;
41643;SDS011;44236;48.098;11.582;2023-11-21T10:09:08;4.13;;;1.42;;
41643;SDS011;44236;48.098;11.582;2023-11-21T10:11:43;3.83;;;1.60;;
41643;SDS011;44236;48.098;11.582;2023-11-21T10:16:39;4.85;;;1.17;;
41643;SDS011;44236;48.098;11.582;2023-11-21T10:19:06;7.35;;;1.73;;
41643;SDS011;44236;48.098;11.582;2023-11-21T10:21:35;3.78;;;1.75;;
41643;SDS011;44236;48.098;11.582;2023-11-21T10:24:00;3.97;;;1.30;;
41643;SDS011;44236;48.098;11.582;2023-11-21T10:26:29;2.75;;;1.15;;
41643;SDS011;44236;48.098;11.582;2023-11-21T10:28:57;5.20;;;1.25;;
41643;SDS011;44236;48.098;11.582;2023-11-21T10:31:24;2.67;;;1.20;;
41643;SDS011;44236;48.098;11.582;2023-11-21T10:33:53;3.70;;;1.30;;
41643;SDS011;44236;48.098;11.582;2023-11-21T10:36:25;3.03;;;1.08;;
41643;SDS011;44236;48.098;11.582;2023-11-21T10:38:52;4.10;;;1.13;;
41643;SDS011;44236;48.098;11.582;2023-11-21T10:41:18;7.95;;;1.38;;
41643;SDS011;44236;48.098;11.582;2023-11-21T10:43:45;5.20;;;1.23;;
41643;SDS011;44236;48.098;11.582;2023-11-21T10:46:10;2.70;;;1.17;;
41643;SDS011;44236;48.098;11.582;2023-11-21T10:48:36;2.88;;;1.13;;
41643;SDS011;44236;48.098;11.582;2023-11-21T10:51:06;3.67;;;1.42;;
41643;SDS011;44236;48.098;11.582;2023-11-21T10:53:32;6.75;;;1.73;;
41643;SDS011;44236;48.098;11.582;2023-11-21T10:56:02;1.85;;;1.08;;
41643;SDS011;44236;48.098;11.582;2023-11-21T10:58:42;4.13;;;1.48;;
41643;SDS011;44236;48.098;11.582;2023-11-21T11:01:08;4.63;;;1.42;;
41643;SDS011;44236;48.098;11.582;2023-11-21T11:03:39;6.68;;;1.83;;
41643;SDS011;44236;48.098;11.582;2023-11-21T11:06:06;3.85;;;1.25;;
41643;SDS011;44236;48.098;11.582;2023-11-21T11:08:36;2.63;;;1.30;;
41643;SDS011;44236;48.098;11.582;2023-11-21T11:11:03;4.07;;;1.50;;
41643;SDS011;44236;48.098;11.582;2023-11-21T11:13:30;4.30;;;1.20;;
41643;SDS011;44236;48.098;11.582;2023-11-21T11:15:59;4.60;;;1.02;;
41643;SDS011;44236;48.098;11.582;2023-11-21T11:18:27;3.88;;;1.52;;
41643;SDS011;44236;48.098;11.582;2023-11-21T11:20:54;4.13;;;1.27;;
41643;SDS011;44236;48.098;11.582;2023-11-21T11:23:49;4.28;;;1.70;;
41643;SDS011;44236;48.098;11.582;2023-11-21T11:32:03;4.00;;;1.40;;
41643;SDS011;44236;48.098;11.582;2023-11-21T11:34:52;3.72;;;1.10;;
41643;SDS011;44236;48.098;11.582;2023-11-21T11:37:26;2.75;;;0.90;;
41643;SDS011;44236;48.098;11.582;2023-11-21T11:39:52;3.30;;;1.27;;
41643;SDS011;44236;48.098;11.582;2023-11-21T11:42:19;2.35;;;0.90;;
41643;SDS011;44236;48.098;11.582;2023-11-21T11:44:49;4.32;;;1.20;;
41643;SDS011;44236;48.098;11.582;2023-11-21T11:47:26;5.10;;;1.00;;
41643;SDS011;44236;48.098;11.582;2023-11-21T11:52:48;4.65;;;1.33;;
41643;SDS011;44236;48.098;11.582;2023-11-21T11:55:20;2.70;;;0.90;;
41643;SDS011;44236;48.098;11.582;2023-11-21T11:57:48;2.50;;;1.15;;
41643;SDS011;44236;48.098;11.582;2023-11-21T12:02:54;5.45;;;0.85;;
41643;SDS011;44236;48.098;11.582;2023-11-21T12:05:25;2.40;;;1.05;;
41643;SDS011;44236;48.098;11.582;2023-11-21T12:07:57;3.28;;;1.83;;
41643;SDS011;44236;48.098;11.582;2023-11-21T12:12:50;2.55;;;0.90;;
41643;SDS011;44236;48.098;11.582;2023-11-21T12:15:18;2.67;;;1.00;;
41643;SDS011;44236;48.098;11.582;2023-11-21T12:17:44;2.42;;;0.93;;
41643;SDS011;44236;48.098;11.582;2023-11-21T12:20:11;3.65;;;1.27;;
41643;SDS011;44236;48.098;11.582;2023-11-21T12:22:51;2.67;;;0.93;;
41643;SDS011;44236;48.098;11.582;2023-11-21T12:25:22;3.95;;;1.00;;
41643;SDS011;44236;48.098;11.582;2023-11-21T12:27:50;2.35;;;1.00;;
41643;SDS011;44236;48.098;11.582;2023-11-21T12:30:17;1.92;;;1.05;;
41643;SDS011;44236;48.098;11.582;2023-11-21T12:32:44;3.10;;;1.27;;
41643;SDS011;44236;48.098;11.582;2023-11-21T12:35:13;4.00;;;1.20;;
41643;SDS011;44236;48.098;11.582;2023-11-21T12:37:39;3.83;;;1.10;;
41643;SDS011;44236;48.098;11.582;2023-11-21T12:40:08;3.83;;;1.10;;
41643;SDS011;44236;48.098;11.582;2023-11-21T12:42:36;2.83;;;0.90;;
41643;SDS011;44236;48.098;11.582;2023-11-21T12:47:46;3.53;;;1.02;;
41643;SDS011;44236;48.098;11.582;2023-11-21T12:52:41;2.45;;;0.93;;
41643;SDS011;44236;48.098;11.582;2023-11-21T12:55:09;3.80;;;1.08;;
41643;SDS011;44236;48.098;11.582;2023-11-21T12:57:47;3.10;;;0.95;;
41643;SDS011;44236;48.098;11.582;2023-11-21T13:00:15;2.28;;;0.93;;
41643;SDS011;44236;48.098;11.582;2023-11-21T13:02:52;1.20;;;0.80;;
41643;SDS011;44236;48.098;11.582;2023-11-21T13:05:38;4.60;;;1.15;;
41643;SDS011;44236;48.098;11.582;2023-11-21T13:08:08;1.92;;;0.80;;
41643;SDS011;44236;48.098;11.582;2023-11-21T13:10:37;3.63;;;1.25;;
41643;SDS011;44236;48.098;11.582;2023-11-21T13:13:05;2.22;;;0.85;;
41643;SDS011;44236;48.098;11.582;2023-11-21T13:15:34;2.30;;;0.95;;
41643;SDS011;44236;48.098;11.582;2023-11-21T13:18:03;2.53;;;0.88;;
41643;SDS011;44236;48.098;11.582;2023-11-21T13:20:29;2.17;;;0.73;;
41643;SDS011;44236;48.098;11.582;2023-11-21T13:22:56;2.75;;;0.90;;
41643;SDS011;44236;48.098;11.582;2023-11-21T13:25:24;1.75;;;0.80;;
41643;SDS011;44236;48.098;11.582;2023-11-21T13:27:56;3.35;;;0.98;;
41643;SDS011;44236;48.098;11.582;2023-11-21T13:30:23;1.15;;;0.60;;
41643;SDS011;44236;48.098;11.582;2023-11-21T13:32:58;2.60;;;1.17;;
41643;SDS011;44236;48.098;11.582;2023-11-21T13:35:30;1.85;;;0.85;;
41643;SDS011;44236;48.098;11.582;2023-11-21T13:38:13;3.30;;;1.00;;
41643;SDS011;44236;48.098;11.582;2023-11-21T13:40:42;1.23;;;0.73;;
41643;SDS011;44236;48.098;11.582;2023-11-21T13:45:40;1.60;;;0.88;;
41643;SDS011;44236;48.098;11.582;2023-11-21T13:48:07;2.55;;;1.02;;
41643;SDS011;44236;48.098;11.582;2023-11-21T13:50:42;1.63;;;0.90;;
41643;SDS011;44236;48.098;11.582;2023-11-21T13:53:13;3.40;;;0.80;;
41643;SDS011;44236;48.098;11.582;2023-11-21T13:55:52;3.50;;;1.70;;
41643;SDS011;44236;48.098;11.582;2023-11-21T13:58:25;2.60;;;0.90;;
41643;SDS011;44236;48.098;11.582;2023-11-21T14:01:11;2.65;;;0.88;;
41643;SDS011;44236;48.098;11.582;2023-11-21T14:04:01;3.92;;;1.00;;
41643;SDS011;44236;48.098;11.582;2023-11-21T14:06:45;1.60;;;0.70;;
41643;SDS011;44236;48.098;11.582;2023-11-21T14:09:16;1.35;;;0.68;;
41643;SDS011;44236;48.098;11.582;2023-11-21T14:11:53;2.17;;;1.20;;
41643;SDS011;44236;48.098;11.582;2023-11-21T14:14:22;1.98;;;0.75;;
41643;SDS011;44236;48.098;11.582;2023-11-21T14:16:50;3.25;;;0.80;;
41643;SDS011;44236;48.098;11.582;2023-11-21T14:19:16;1.17;;;0.90;;
41643;SDS011;44236;48.098;11.582;2023-11-21T14:21:45;2.67;;;0.90;;
41643;SDS011;44236;48.098;11.582;2023-11-21T14:24:12;3.30;;;0.88;;
41643;SDS011;44236;48.098;11.582;2023-11-21T14:26:41;2.42;;;1.00;;
41643;SDS011;44236;48.098;11.582;2023-11-21T14:29:07;1.25;;;0.80;;
41643;SDS011;44236;48.098;11.582;2023-11-21T14:31:34;1.80;;;0.80;;
41643;SDS011;44236;48.098;11.582;2023-11-21T14:34:00;2.55;;;0.80;;
41643;SDS011;44236;48.098;11.582;2023-11-21T14:36:31;4.90;;;0.80;;
41643;SDS011;44236;48.098;11.582;2023-11-21T14:38:57;1.88;;;0.93;;
41643;SDS011;44236;48.098;11.582;2023-11-21T14:41:22;1.85;;;0.82;;
41643;SDS011;44236;48.098;11.582;2023-11-21T14:43:52;2.08;;;0.95;;
41643;SDS011;44236;48.098;11.582;2023-11-21T14:46:19;2.42;;;0.90;;
41643;SDS011;44236;48.098;11.582;2023-11-21T14:48:45;1.30;;;0.80;;
41643;SDS011;44236;48.098;11.582;2023-11-21T14:51:24;1.27;;;0.77;;
41643;SDS011;44236;48.098;11.582;2023-11-21T14:53:50;2.05;;;0.80;;
41643;SDS011;44236;48.098;11.582;2023-11-21T14:56:22;1.85;;;0.75;;
41643;SDS011;44236;48.098;11.582;2023-11-21T14:58:59;2.13;;;0.88;;
41643;SDS011;44236;48.098;11.582;2023-11-21T15:01:37;1.80;;;0.82;;